createdAt,value
2019-05-30T00:00:16.010Z,10.93
2019-05-30T00:02:39.840Z,6.28
2019-05-30T00:05:13.283Z,7.00
2019-05-30T00:07:45.283Z,6.47
2019-05-30T00:10:19.640Z,7.37
2019-05-30T00:12:51.795Z,6.60
2019-05-30T00:15:24.270Z,8.83
2019-05-30T00:17:56.716Z,11.55
2019-05-30T00:20:29.138Z,7.70
2019-05-30T00:23:01.538Z,8.58
2019-05-30T00:25:33.846Z,6.55
2019-05-30T00:28:06.179Z,8.43
2019-05-30T00:30:38.635Z,6.17
2019-05-30T00:33:10.989Z,8.08
2019-05-30T00:35:46.536Z,6.35
2019-05-30T00:38:20.344Z,5.30
2019-05-30T00:40:52.717Z,5.83
2019-05-30T00:43:24.805Z,8.30
2019-05-30T00:45:57.945Z,12.20
2019-05-30T00:48:30.450Z,9.85
2019-05-30T00:51:04.650Z,7.58
2019-05-30T00:56:07.984Z,11.53
2019-05-30T00:58:40.148Z,9.40
2019-05-30T01:01:12.989Z,7.60
2019-05-30T01:03:45.076Z,9.73
2019-05-30T01:06:17.456Z,6.92
2019-05-30T01:08:49.647Z,7.28
2019-05-30T01:11:22.000Z,9.68
2019-05-30T01:13:54.299Z,9.83
2019-05-30T01:16:26.466Z,9.48
2019-05-30T01:18:59.073Z,9.03
2019-05-30T01:21:31.234Z,7.85
2019-05-30T01:24:03.613Z,8.48
2019-05-30T01:26:36.138Z,9.08
2019-05-30T01:29:08.483Z,6.97
2019-05-30T01:31:40.603Z,10.00
2019-05-30T01:34:13.997Z,8.15
2019-05-30T01:36:46.272Z,15.80
2019-05-30T01:39:18.786Z,9.50
2019-05-30T01:41:51.323Z,6.33
2019-05-30T01:44:24.623Z,6.92
2019-05-30T01:46:58.083Z,7.43
2019-05-30T01:49:30.600Z,7.00
2019-05-30T01:52:04.524Z,6.92
2019-05-30T01:54:36.780Z,11.00
2019-05-30T01:57:09.394Z,7.28
2019-05-30T01:59:41.762Z,9.43
2019-05-30T02:02:14.105Z,10.05
2019-05-30T02:04:46.787Z,9.90
2019-05-30T02:07:19.165Z,8.60
2019-05-30T02:09:51.528Z,7.28
2019-05-30T02:12:23.706Z,9.48
2019-05-30T02:14:55.882Z,8.30
2019-05-30T02:17:28.213Z,9.18
2019-05-30T02:20:01.845Z,6.95
2019-05-30T02:22:34.242Z,8.98
2019-05-30T02:25:10.232Z,11.75
2019-05-30T02:27:42.676Z,7.95
2019-05-30T02:30:15.342Z,12.60
2019-05-30T02:32:48.012Z,8.05
2019-05-30T02:35:20.533Z,6.12
2019-05-30T02:37:52.693Z,9.18
2019-05-30T02:40:25.396Z,10.23
2019-05-30T02:43:01.262Z,10.80
2019-05-30T02:45:34.046Z,9.20
2019-05-30T02:48:07.518Z,8.73
2019-05-30T02:50:40.682Z,7.20
2019-05-30T02:53:14.385Z,10.95
2019-05-30T02:55:46.881Z,11.90
2019-05-30T02:58:19.342Z,10.03
2019-05-30T03:00:51.934Z,14.15
2019-05-30T03:03:24.571Z,10.35
2019-05-30T03:05:56.895Z,13.48
2019-05-30T03:08:31.182Z,8.45
2019-05-30T03:11:07.078Z,9.43
2019-05-30T03:16:11.839Z,8.53
2019-05-30T03:18:45.146Z,6.90
2019-05-30T03:21:17.668Z,11.10
2019-05-30T03:23:50.227Z,7.45
2019-05-30T03:26:22.303Z,10.45
2019-05-30T03:28:55.807Z,10.13
2019-05-30T03:31:30.610Z,6.97
2019-05-30T03:34:08.234Z,8.28
2019-05-30T03:36:36.746Z,11.73
2019-05-30T03:39:10.848Z,7.65
2019-05-30T03:44:15.592Z,4.65
2019-05-30T03:49:24.070Z,6.25
2019-05-30T03:51:58.406Z,13.93
2019-05-30T03:54:33.234Z,9.58
2019-05-30T03:57:09.116Z,12.13
2019-05-30T04:00:02.884Z,7.30
2019-05-30T04:02:57.581Z,12.00
2019-05-30T04:05:43.888Z,10.13
2019-05-30T04:08:19.694Z,8.78
2019-05-30T04:10:55.510Z,11.95
2019-05-30T04:13:51.287Z,5.65
2019-05-30T04:16:23.619Z,11.60
2019-05-30T04:18:56.709Z,12.18
2019-05-30T04:21:29.220Z,11.67
2019-05-30T04:24:04.261Z,12.45
2019-05-30T04:26:37.768Z,9.40
2019-05-30T04:29:12.039Z,8.50
2019-05-30T04:31:44.804Z,12.93
2019-05-30T04:34:19.442Z,14.68
2019-05-30T04:36:53.369Z,7.12
2019-05-30T04:39:25.373Z,9.95
2019-05-30T04:41:58.666Z,7.10
2019-05-30T04:44:31.967Z,6.22
2019-05-30T04:47:04.384Z,10.80
2019-05-30T04:49:36.808Z,6.92
2019-05-30T04:52:14.263Z,12.37
2019-05-30T04:54:47.230Z,9.15
2019-05-30T04:57:25.688Z,10.48
2019-05-30T04:59:55.812Z,10.98
2019-05-30T05:02:28.346Z,11.30
2019-05-30T05:05:00.868Z,11.08
2019-05-30T05:07:34.354Z,14.10
2019-05-30T05:10:09.144Z,8.20
2019-05-30T05:12:41.417Z,6.97
2019-05-30T05:15:14.332Z,6.12
2019-05-30T05:17:46.558Z,7.62
2019-05-30T05:20:19.608Z,10.03
2019-05-30T05:22:51.934Z,8.10
2019-05-30T05:25:25.635Z,7.90
2019-05-30T05:27:58.827Z,8.00
2019-05-30T05:30:31.208Z,8.80
2019-05-30T05:33:03.288Z,6.65
2019-05-30T05:35:36.200Z,8.30
2019-05-30T05:38:08.774Z,13.30
2019-05-30T05:40:41.159Z,14.85
2019-05-30T05:43:13.670Z,8.23
2019-05-30T05:45:45.831Z,8.10
2019-05-30T05:48:18.352Z,7.25
2019-05-30T05:50:50.641Z,9.20
2019-05-30T05:53:23.097Z,12.98
2019-05-30T05:55:57.760Z,10.20
2019-05-30T05:58:30.753Z,10.45
2019-05-30T06:01:03.255Z,14.23
2019-05-30T06:03:35.831Z,11.83
2019-05-30T06:06:08.035Z,6.10
2019-05-30T06:08:40.089Z,7.35
2019-05-30T06:11:13.196Z,8.73
2019-05-30T06:13:45.699Z,11.07
2019-05-30T06:16:19.667Z,7.58
2019-05-30T06:21:23.535Z,13.83
2019-05-30T06:23:56.324Z,11.10
2019-05-30T06:26:28.643Z,7.97
2019-05-30T06:29:01.127Z,8.53
2019-05-30T06:31:33.330Z,7.45
2019-05-30T06:34:05.847Z,14.73
2019-05-30T06:36:38.040Z,11.60
2019-05-30T06:39:10.816Z,8.28
2019-05-30T06:41:43.152Z,13.28
2019-05-30T06:44:15.570Z,9.95
2019-05-30T06:46:47.816Z,10.80
2019-05-30T06:49:20.661Z,13.45
2019-05-30T06:51:53.002Z,6.92
2019-05-30T06:54:25.978Z,17.40
2019-05-30T06:57:01.272Z,14.75
2019-05-30T06:59:33.802Z,13.10
2019-05-30T07:02:06.534Z,10.50
2019-05-30T07:04:50.942Z,8.80
2019-05-30T07:07:15.248Z,8.90
2019-05-30T07:09:48.635Z,21.40
2019-05-30T07:12:20.930Z,17.50
2019-05-30T07:14:53.647Z,17.05
2019-05-30T07:17:27.445Z,8.43
2019-05-30T07:19:59.764Z,4.70
2019-05-30T07:22:32.001Z,8.03
2019-05-30T07:25:05.840Z,7.85
2019-05-30T07:30:10.468Z,7.03
2019-05-30T07:32:43.816Z,11.48
2019-05-30T07:35:16.277Z,6.55
2019-05-30T07:37:48.547Z,6.47
2019-05-30T07:40:22.044Z,14.18
2019-05-30T07:42:54.366Z,5.85
2019-05-30T07:45:29.016Z,5.10
2019-05-30T07:48:01.188Z,9.15
2019-05-30T07:50:34.545Z,8.08
2019-05-30T07:53:11.809Z,6.83
2019-05-30T07:55:45.933Z,6.60
2019-05-30T07:58:22.083Z,6.83
2019-05-30T08:00:54.813Z,10.48
2019-05-30T08:03:28.381Z,11.48
2019-05-30T08:06:00.930Z,9.43
2019-05-30T08:08:33.958Z,7.80
2019-05-30T08:11:09.811Z,5.42
2019-05-30T08:16:11.810Z,12.60
2019-05-30T08:18:45.111Z,7.03
2019-05-30T08:21:17.339Z,8.10
2019-05-30T08:23:49.995Z,8.28
2019-05-30T08:26:22.384Z,7.75
2019-05-30T08:28:54.706Z,5.62
2019-05-30T08:31:28.483Z,6.12
2019-05-30T08:34:00.978Z,6.03
2019-05-30T08:36:33.192Z,6.28
2019-05-30T08:39:08.792Z,6.83
2019-05-30T08:41:41.029Z,6.35
2019-05-30T08:44:13.194Z,5.60
2019-05-30T08:46:45.264Z,7.95
2019-05-30T08:49:17.260Z,6.05
2019-05-30T08:51:49.412Z,9.70
2019-05-30T08:54:21.517Z,4.95
2019-05-30T08:56:54.826Z,7.97
2019-05-30T08:59:28.865Z,5.40
2019-05-30T09:02:03.757Z,9.65
2019-05-30T09:04:35.936Z,10.78
2019-05-30T09:07:09.296Z,6.97
2019-05-30T09:09:44.369Z,11.97
2019-05-30T09:12:16.886Z,10.90
2019-05-30T09:14:49.421Z,4.92
2019-05-30T09:19:55.085Z,3.80
2019-05-30T09:22:27.303Z,5.05
2019-05-30T09:24:59.971Z,4.53
2019-05-30T09:27:33.204Z,5.75
2019-05-30T09:30:10.245Z,7.85
2019-05-30T09:32:45.162Z,3.40
2019-05-30T09:35:19.817Z,4.10
2019-05-30T09:37:53.745Z,7.17
2019-05-30T09:40:28.372Z,9.18
2019-05-30T09:43:01.067Z,8.75
2019-05-30T09:45:33.924Z,10.15
2019-05-30T09:48:07.517Z,6.00
2019-05-30T09:50:42.009Z,6.92
2019-05-30T09:53:14.127Z,5.53
2019-05-30T09:55:48.271Z,5.22
2019-05-30T09:58:20.603Z,6.45
2019-05-30T10:00:54.564Z,12.43
2019-05-30T10:03:26.988Z,5.95
2019-05-30T10:05:59.414Z,8.35
2019-05-30T10:08:31.659Z,8.05
2019-05-30T10:11:03.912Z,5.37
2019-05-30T10:13:36.473Z,5.72
2019-05-30T10:16:11.028Z,7.22
2019-05-30T10:21:15.299Z,6.20
2019-05-30T10:23:52.432Z,9.28
2019-05-30T10:26:24.702Z,3.70
2019-05-30T10:28:59.118Z,7.15
2019-05-30T10:31:31.711Z,5.22
2019-05-30T10:34:03.979Z,8.55
2019-05-30T10:36:44.188Z,9.90
2019-05-30T10:39:10.319Z,9.98
2019-05-30T10:41:42.421Z,8.35
2019-05-30T10:44:15.563Z,10.48
2019-05-30T10:46:48.977Z,7.80
2019-05-30T10:49:34.118Z,5.30
2019-05-30T10:51:59.117Z,5.50
2019-05-30T10:54:29.779Z,5.97
2019-05-30T10:57:02.235Z,5.72
2019-05-30T10:59:34.463Z,5.37
2019-05-30T11:02:08.228Z,5.67
2019-05-30T11:04:40.361Z,8.05
2019-05-30T11:07:36.667Z,7.20
2019-05-30T11:10:14.568Z,5.78
2019-05-30T11:12:48.059Z,4.70
2019-05-30T11:15:24.863Z,11.22
2019-05-30T11:17:58.170Z,6.33
2019-05-30T11:20:30.505Z,16.67
2019-05-30T11:23:02.988Z,10.37
2019-05-30T11:25:35.668Z,9.78
2019-05-30T11:28:08.332Z,8.30
2019-05-30T11:30:40.668Z,5.43
2019-05-30T11:33:14.396Z,9.00
2019-05-30T11:35:51.139Z,7.33
2019-05-30T11:38:24.815Z,8.18
2019-05-30T11:40:57.629Z,5.50
2019-05-30T11:43:31.323Z,5.85
2019-05-30T11:46:03.662Z,8.40
2019-05-30T11:48:35.811Z,8.73
2019-05-30T11:51:08.206Z,9.63
2019-05-30T11:53:41.543Z,6.90
2019-05-30T11:58:45.979Z,4.67
2019-05-30T12:01:18.348Z,6.22
2019-05-30T12:03:52.600Z,5.60
2019-05-30T12:06:24.925Z,5.60
2019-05-30T12:08:57.244Z,6.10
2019-05-30T12:11:34.795Z,3.87
2019-05-30T12:14:13.091Z,6.45
2019-05-30T12:16:46.178Z,7.72
2019-05-30T12:19:18.424Z,3.47
2019-05-30T12:21:51.577Z,5.75
2019-05-30T12:24:24.728Z,6.40
2019-05-30T12:26:58.161Z,9.18
2019-05-30T12:29:30.501Z,4.97
2019-05-30T12:32:03.740Z,7.22
2019-05-30T12:34:37.142Z,7.40
2019-05-30T12:37:09.345Z,8.85
2019-05-30T12:39:41.548Z,8.93
2019-05-30T12:42:13.858Z,7.85
2019-05-30T12:44:47.235Z,7.47
2019-05-30T12:47:20.596Z,6.00
2019-05-30T12:49:53.634Z,10.70
2019-05-30T12:52:26.109Z,7.42
2019-05-30T12:55:00.898Z,5.62
2019-05-30T12:57:33.387Z,7.78
2019-05-30T13:00:17.351Z,5.92
2019-05-30T13:02:46.738Z,4.58
2019-05-30T13:05:21.327Z,5.75
2019-05-30T13:08:08.062Z,6.72
2019-05-30T13:10:28.194Z,4.83
2019-05-30T13:13:01.827Z,6.42
2019-05-30T13:15:34.063Z,9.85
2019-05-30T13:18:07.195Z,9.00
2019-05-30T13:20:39.790Z,36.48
2019-05-30T13:23:13.405Z,4.87
2019-05-30T13:28:18.651Z,8.13
2019-05-30T13:30:51.132Z,10.03
2019-05-30T13:33:25.784Z,5.55
2019-05-30T13:35:58.889Z,6.50
2019-05-30T13:38:33.289Z,5.25
2019-05-30T13:41:05.679Z,5.08
2019-05-30T13:43:39.986Z,6.50
2019-05-30T13:46:12.290Z,6.12
2019-05-30T13:48:47.100Z,8.58
2019-05-30T13:51:19.408Z,6.03
2019-05-30T13:53:54.904Z,4.72
2019-05-30T13:56:26.943Z,3.37
2019-05-30T13:58:59.654Z,4.65
2019-05-30T14:01:33.491Z,2.98
2019-05-30T14:04:06.723Z,4.62
2019-05-30T14:06:41.689Z,6.03
2019-05-30T14:09:13.905Z,5.62
2019-05-30T14:11:46.051Z,8.83
2019-05-30T14:14:19.839Z,8.25
2019-05-30T14:19:26.342Z,8.60
2019-05-30T14:22:03.387Z,5.58
2019-05-30T14:24:36.091Z,6.87
2019-05-30T14:27:09.620Z,6.30
2019-05-30T14:29:42.146Z,9.25
2019-05-30T14:32:14.604Z,2.93
2019-05-30T14:34:47.252Z,4.87
2019-05-30T14:37:19.935Z,7.72
2019-05-30T14:39:52.143Z,8.40
2019-05-30T14:42:24.246Z,8.80
2019-05-30T14:44:56.431Z,11.00
2019-05-30T14:47:29.091Z,5.62
2019-05-30T14:50:02.275Z,7.00
2019-05-30T14:52:34.663Z,8.35
2019-05-30T14:55:09.065Z,7.70
2019-05-30T14:57:41.467Z,13.75
2019-05-30T15:00:17.716Z,5.05
2019-05-30T15:02:50.142Z,7.08
2019-05-30T15:05:22.221Z,10.18
2019-05-30T15:07:56.373Z,6.80
2019-05-30T15:10:28.676Z,5.80
2019-05-30T15:13:00.821Z,6.70
2019-05-30T15:15:33.998Z,6.33
2019-05-30T15:18:07.207Z,6.22
2019-05-30T15:20:39.420Z,6.90
2019-05-30T15:23:13.707Z,9.48
2019-05-30T15:25:46.166Z,7.47
2019-05-30T15:28:18.543Z,13.20
2019-05-30T15:30:51.038Z,14.03
2019-05-30T15:33:23.596Z,8.13
2019-05-30T15:35:55.845Z,7.78
2019-05-30T15:38:28.005Z,5.92
2019-05-30T15:41:00.248Z,6.28
2019-05-30T15:43:32.884Z,6.72
2019-05-30T15:46:05.258Z,6.47
2019-05-30T15:48:37.485Z,7.72
2019-05-30T15:51:10.434Z,6.47
2019-05-30T15:53:43.296Z,8.30
2019-05-30T15:56:17.325Z,8.05
2019-05-30T15:58:49.744Z,10.43
2019-05-30T16:01:23.295Z,8.35
2019-05-30T16:03:55.612Z,6.58
2019-05-30T16:06:28.028Z,10.13
2019-05-30T16:09:02.378Z,7.90
2019-05-30T16:11:36.433Z,4.22
2019-05-30T16:14:09.255Z,9.93
2019-05-30T16:16:41.736Z,6.17
2019-05-30T16:19:20.160Z,8.30
2019-05-30T16:24:21.432Z,12.70
2019-05-30T16:26:53.888Z,5.55
2019-05-30T16:29:26.083Z,7.58
2019-05-30T16:31:58.329Z,7.40
2019-05-30T16:34:32.773Z,7.72
2019-05-30T16:37:04.809Z,8.60
2019-05-30T16:39:37.674Z,7.20
2019-05-30T16:42:10.076Z,8.68
2019-05-30T16:44:42.610Z,9.88
2019-05-30T16:47:14.932Z,7.90
2019-05-30T16:49:48.519Z,7.78
2019-05-30T16:54:53.042Z,10.80
2019-05-30T16:57:25.391Z,10.60
2019-05-30T16:59:58.016Z,8.83
2019-05-30T17:02:31.258Z,8.40
2019-05-30T17:05:05.103Z,11.12
2019-05-30T17:07:37.824Z,8.80
2019-05-30T17:10:23.527Z,14.10
2019-05-30T17:12:50.996Z,10.80
2019-05-30T17:15:24.142Z,8.58
2019-05-30T17:17:56.713Z,11.70
2019-05-30T17:20:29.354Z,8.93
2019-05-30T17:23:01.786Z,12.98
2019-05-30T17:25:34.302Z,11.88
2019-05-30T17:28:06.928Z,12.98
2019-05-30T17:30:39.981Z,9.00
2019-05-30T17:33:12.211Z,8.77
2019-05-30T17:35:46.555Z,14.38
2019-05-30T17:38:18.982Z,12.10
2019-05-30T17:40:51.313Z,17.35
2019-05-30T17:43:25.048Z,13.32
2019-05-30T17:45:59.460Z,20.23
2019-05-30T17:48:31.945Z,28.00
2019-05-30T17:51:05.256Z,32.73
2019-05-30T17:53:37.924Z,29.30
2019-05-30T17:56:11.851Z,30.60
2019-05-30T17:58:49.928Z,32.25
2019-05-30T18:01:22.533Z,38.40
2019-05-30T18:03:55.115Z,30.48
2019-05-30T18:06:28.644Z,33.28
2019-05-30T18:09:01.350Z,36.83
2019-05-30T18:11:37.498Z,37.85
2019-05-30T18:14:11.323Z,27.62
2019-05-30T18:16:44.314Z,31.52
2019-05-30T18:19:21.089Z,31.42
2019-05-30T18:21:53.715Z,23.38
2019-05-30T18:24:27.757Z,28.85
2019-05-30T18:27:00.405Z,35.17
2019-05-30T18:29:33.391Z,31.05
2019-05-30T18:32:05.771Z,36.85
2019-05-30T18:34:40.526Z,26.23
2019-05-30T18:37:15.359Z,32.50
2019-05-30T18:39:47.891Z,36.13
2019-05-30T18:42:22.973Z,34.48
2019-05-30T18:44:58.786Z,33.38
2019-05-30T18:47:31.484Z,33.50
2019-05-30T18:50:04.570Z,34.13
2019-05-30T18:52:37.146Z,26.03
2019-05-30T18:55:11.022Z,30.92
2019-05-30T18:57:43.397Z,34.98
2019-05-30T19:00:17.619Z,32.28
2019-05-30T19:02:50.346Z,35.48
2019-05-30T19:05:24.411Z,29.75
2019-05-30T19:07:57.950Z,29.00
2019-05-30T19:10:32.437Z,32.45
2019-05-30T19:13:07.239Z,29.70
2019-05-30T19:15:40.902Z,43.23
2019-05-30T19:18:13.492Z,41.37
2019-05-30T19:20:46.033Z,38.55
2019-05-30T19:23:18.942Z,37.70
2019-05-30T19:25:51.714Z,38.65
2019-05-30T19:28:24.553Z,38.50
2019-05-30T19:30:58.211Z,35.90
2019-05-30T19:36:03.236Z,32.88
2019-05-30T19:38:35.821Z,29.20
2019-05-30T19:41:08.172Z,28.32
2019-05-30T19:43:40.575Z,31.50
2019-05-30T19:46:13.430Z,25.32
2019-05-30T19:48:47.771Z,35.40
2019-05-30T19:53:53.300Z,37.23
2019-05-30T19:56:25.913Z,35.45
2019-05-30T19:58:58.533Z,40.30
2019-05-30T20:01:31.722Z,36.68
2019-05-30T20:04:04.758Z,44.40
2019-05-30T20:06:37.191Z,31.50
2019-05-30T20:09:09.869Z,40.75
2019-05-30T20:11:42.282Z,36.30
2019-05-30T20:14:18.237Z,33.33
2019-05-30T20:16:51.064Z,33.42
2019-05-30T20:19:24.336Z,38.63
2019-05-30T20:21:56.759Z,49.88
2019-05-30T20:24:29.392Z,66.20
2019-05-30T20:27:02.824Z,59.13
2019-05-30T20:29:35.297Z,49.67
2019-05-30T20:32:08.022Z,44.30
2019-05-30T20:34:40.965Z,45.70
2019-05-30T20:37:14.274Z,33.85
2019-05-30T20:39:47.277Z,30.72
2019-05-30T20:42:19.986Z,29.02
2019-05-30T20:44:52.784Z,25.20
2019-05-30T20:47:25.624Z,29.70
2019-05-30T20:49:57.879Z,25.77
2019-05-30T20:52:30.728Z,27.10
2019-05-30T20:55:03.452Z,33.23
2019-05-30T20:57:38.390Z,33.95
2019-05-30T21:00:12.457Z,34.83
2019-05-30T21:02:47.056Z,26.57
2019-05-30T21:05:19.633Z,24.23
2019-05-30T21:07:53.917Z,22.32
2019-05-30T21:10:26.368Z,24.20
2019-05-30T21:13:00.507Z,25.30
2019-05-30T21:18:07.549Z,23.70
2019-05-30T21:20:40.092Z,34.20
2019-05-30T21:23:12.678Z,21.12
2019-05-30T21:25:45.550Z,21.95
2019-05-30T21:28:18.011Z,19.10
2019-05-30T21:30:50.755Z,20.88
2019-05-30T21:33:24.370Z,18.55
2019-05-30T21:35:57.082Z,20.82
2019-05-30T21:38:29.754Z,22.37
2019-05-30T21:41:02.467Z,15.48
2019-05-30T21:43:35.399Z,20.20
2019-05-30T21:46:07.643Z,25.00
2019-05-30T21:48:41.253Z,27.87
2019-05-30T21:51:14.746Z,31.93
2019-05-30T21:53:47.741Z,25.00
2019-05-30T21:56:20.425Z,35.85
2019-05-30T21:58:53.036Z,39.15
2019-05-30T22:01:29.005Z,31.10
2019-05-30T22:04:02.143Z,25.72
2019-05-30T22:06:34.754Z,29.00
2019-05-30T22:09:08.734Z,22.07
2019-05-30T22:11:41.703Z,21.85
2019-05-30T22:14:14.371Z,21.75
2019-05-30T22:16:50.133Z,24.55
2019-05-30T22:19:23.063Z,23.32
2019-05-30T22:21:55.521Z,25.88
2019-05-30T22:24:28.286Z,22.55
2019-05-30T22:27:00.566Z,22.25
2019-05-30T22:29:33.312Z,32.70
2019-05-30T22:32:06.826Z,21.65
2019-05-30T22:34:39.341Z,22.80
2019-05-30T22:37:11.929Z,20.45
2019-05-30T22:39:44.873Z,21.52
2019-05-30T22:42:17.657Z,23.73
2019-05-30T22:44:50.554Z,21.50
2019-05-30T22:47:23.061Z,18.90
2019-05-30T22:49:56.941Z,20.68
2019-05-30T22:52:30.427Z,30.68
2019-05-30T22:55:06.446Z,28.00
2019-05-30T22:57:38.685Z,27.58
2019-05-30T23:00:11.826Z,23.50
2019-05-30T23:02:44.092Z,30.97
2019-05-30T23:05:16.492Z,24.02
2019-05-30T23:07:49.403Z,29.15
2019-05-30T23:10:22.777Z,23.92
2019-05-30T23:12:56.049Z,22.65
2019-05-30T23:15:28.441Z,25.97
2019-05-30T23:18:02.564Z,26.23
2019-05-30T23:20:34.951Z,25.43
2019-05-30T23:23:07.217Z,33.60
2019-05-30T23:25:39.476Z,30.60
2019-05-30T23:28:12.041Z,27.32
2019-05-30T23:30:44.420Z,29.57
2019-05-30T23:33:16.899Z,29.75
2019-05-30T23:35:50.272Z,28.38
2019-05-30T23:38:22.758Z,28.77
2019-05-30T23:40:55.337Z,28.90
2019-05-30T23:43:27.605Z,24.50
2019-05-30T23:45:59.948Z,21.93
2019-05-30T23:48:32.375Z,20.25
2019-05-30T23:51:04.851Z,24.00
2019-05-30T23:53:38.233Z,23.17
2019-05-30T23:56:10.656Z,21.70
2019-05-30T23:58:42.910Z,24.90
